Terminal Aerodrome Forecast
Issued by NWS El Paso, TX

Home | Current Version | Previous Version | Text Only | Print | Product List | Glossary On
Versions: 1 2 3 4 5 6 7 8 9 10 11 12 13 14 15
000
FTUS44 KEPZ 232341
TAFELP
TAF
KELP 232341Z 2400/2424 02010G17KT P6SM FEW140 SCT250
     FM240200 06018G28KT P6SM SCT070 SCT120 BKN200
      TEMPO 2403/2406 05020G32KT 5SM BLDU
     FM240900 04018G28KT P6SM SCT060 BKN080 BKN150
     FM241900 09012G22KT P6SM SCT060 BKN080 BKN120
     FM242300 13012G22KT P6SM VCTS SCT060CB BKN080 BKN120=

USA.gov is the U.S. government's official web portal to all federal, state and local government web resources and services.